sensor_id;sensor_type;location;lat;lon;timestamp;P1;durP1;ratioP1;P2;durP2;ratioP2
45802;SDS011;31504;51.716;9.184;2022-08-19T00:01:18;5.10;;;4.70;;
45802;SDS011;31504;51.716;9.184;2022-08-19T00:04:23;6.57;;;4.78;;
45802;SDS011;31504;51.716;9.184;2022-08-19T00:07:26;5.32;;;4.60;;
45802;SDS011;31504;51.716;9.184;2022-08-19T00:10:27;5.10;;;4.63;;
45802;SDS011;31504;51.716;9.184;2022-08-19T00:13:27;5.30;;;4.32;;
45802;SDS011;31504;51.716;9.184;2022-08-19T00:16:28;5.55;;;4.18;;
45802;SDS011;31504;51.716;9.184;2022-08-19T00:19:29;5.45;;;4.68;;
45802;SDS011;31504;51.716;9.184;2022-08-19T00:22:30;4.85;;;4.38;;
45802;SDS011;31504;51.716;9.184;2022-08-19T00:25:31;4.50;;;4.10;;
45802;SDS011;31504;51.716;9.184;2022-08-19T00:28:32;4.90;;;4.50;;
45802;SDS011;31504;51.716;9.184;2022-08-19T00:31:33;4.72;;;4.28;;
45802;SDS011;31504;51.716;9.184;2022-08-19T00:34:33;5.28;;;4.43;;
45802;SDS011;31504;51.716;9.184;2022-08-19T00:37:35;4.43;;;4.03;;
45802;SDS011;31504;51.716;9.184;2022-08-19T00:40:35;5.63;;;4.53;;
45802;SDS011;31504;51.716;9.184;2022-08-19T00:43:36;5.43;;;4.93;;
45802;SDS011;31504;51.716;9.184;2022-08-19T00:46:39;5.88;;;4.53;;
45802;SDS011;31504;51.716;9.184;2022-08-19T00:49:47;6.22;;;4.25;;
45802;SDS011;31504;51.716;9.184;2022-08-19T00:52:53;4.60;;;4.20;;
45802;SDS011;31504;51.716;9.184;2022-08-19T00:55:55;4.80;;;4.35;;
45802;SDS011;31504;51.716;9.184;2022-08-19T00:58:58;4.75;;;4.25;;
45802;SDS011;31504;51.716;9.184;2022-08-19T01:02:01;4.47;;;4.07;;
45802;SDS011;31504;51.716;9.184;2022-08-19T01:05:04;5.03;;;4.55;;
45802;SDS011;31504;51.716;9.184;2022-08-19T01:08:07;5.07;;;4.55;;
45802;SDS011;31504;51.716;9.184;2022-08-19T01:11:08;7.43;;;4.10;;
45802;SDS011;31504;51.716;9.184;2022-08-19T01:14:09;4.57;;;4.18;;
45802;SDS011;31504;51.716;9.184;2022-08-19T01:17:10;4.78;;;4.28;;
45802;SDS011;31504;51.716;9.184;2022-08-19T01:20:16;4.25;;;3.85;;
45802;SDS011;31504;51.716;9.184;2022-08-19T01:23:19;4.32;;;3.72;;
45802;SDS011;31504;51.716;9.184;2022-08-19T01:26:21;4.30;;;3.90;;
45802;SDS011;31504;51.716;9.184;2022-08-19T01:29:23;4.65;;;4.10;;
45802;SDS011;31504;51.716;9.184;2022-08-19T01:32:23;4.95;;;3.95;;
45802;SDS011;31504;51.716;9.184;2022-08-19T01:35:24;4.70;;;4.30;;
45802;SDS011;31504;51.716;9.184;2022-08-19T01:38:26;4.85;;;4.18;;
45802;SDS011;31504;51.716;9.184;2022-08-19T01:41:31;6.25;;;4.15;;
45802;SDS011;31504;51.716;9.184;2022-08-19T01:44:32;6.30;;;4.20;;
45802;SDS011;31504;51.716;9.184;2022-08-19T01:47:33;4.38;;;4.05;;
45802;SDS011;31504;51.716;9.184;2022-08-19T01:50:37;4.90;;;4.50;;
45802;SDS011;31504;51.716;9.184;2022-08-19T01:53:37;5.53;;;4.15;;
45802;SDS011;31504;51.716;9.184;2022-08-19T01:56:38;6.07;;;4.93;;
45802;SDS011;31504;51.716;9.184;2022-08-19T01:59:39;5.70;;;4.00;;
45802;SDS011;31504;51.716;9.184;2022-08-19T02:02:41;4.53;;;4.13;;
45802;SDS011;31504;51.716;9.184;2022-08-19T02:05:42;4.68;;;4.28;;
45802;SDS011;31504;51.716;9.184;2022-08-19T02:08:44;4.10;;;3.70;;
45802;SDS011;31504;51.716;9.184;2022-08-19T02:11:46;4.68;;;4.28;;
45802;SDS011;31504;51.716;9.184;2022-08-19T02:14:46;6.22;;;4.72;;
45802;SDS011;31504;51.716;9.184;2022-08-19T02:17:47;4.30;;;4.00;;
45802;SDS011;31504;51.716;9.184;2022-08-19T02:20:48;4.60;;;3.95;;
45802;SDS011;31504;51.716;9.184;2022-08-19T02:23:49;4.28;;;3.88;;
45802;SDS011;31504;51.716;9.184;2022-08-19T02:26:50;5.30;;;3.97;;
45802;SDS011;31504;51.716;9.184;2022-08-19T02:29:51;4.90;;;4.00;;
45802;SDS011;31504;51.716;9.184;2022-08-19T02:32:52;4.57;;;3.50;;
45802;SDS011;31504;51.716;9.184;2022-08-19T02:35:53;6.55;;;4.00;;
45802;SDS011;31504;51.716;9.184;2022-08-19T02:38:53;4.15;;;3.55;;
45802;SDS011;31504;51.716;9.184;2022-08-19T02:41:54;4.38;;;3.92;;
45802;SDS011;31504;51.716;9.184;2022-08-19T02:44:55;4.38;;;3.63;;
45802;SDS011;31504;51.716;9.184;2022-08-19T02:47:56;3.83;;;3.53;;
45802;SDS011;31504;51.716;9.184;2022-08-19T02:50:56;6.00;;;3.92;;
45802;SDS011;31504;51.716;9.184;2022-08-19T02:53:57;4.10;;;3.50;;
45802;SDS011;31504;51.716;9.184;2022-08-19T02:56:58;5.63;;;4.30;;
45802;SDS011;31504;51.716;9.184;2022-08-19T02:59:59;4.25;;;3.40;;
45802;SDS011;31504;51.716;9.184;2022-08-19T03:03:01;6.30;;;3.38;;
45802;SDS011;31504;51.716;9.184;2022-08-19T03:06:03;4.25;;;3.67;;
45802;SDS011;31504;51.716;9.184;2022-08-19T03:09:05;4.25;;;3.30;;
45802;SDS011;31504;51.716;9.184;2022-08-19T03:12:05;4.85;;;3.90;;
45802;SDS011;31504;51.716;9.184;2022-08-19T03:15:07;5.53;;;3.60;;
45802;SDS011;31504;51.716;9.184;2022-08-19T03:18:08;6.35;;;3.58;;
45802;SDS011;31504;51.716;9.184;2022-08-19T03:21:09;7.25;;;4.25;;
45802;SDS011;31504;51.716;9.184;2022-08-19T03:24:18;3.90;;;3.42;;
45802;SDS011;31504;51.716;9.184;2022-08-19T03:27:20;6.82;;;3.72;;
45802;SDS011;31504;51.716;9.184;2022-08-19T03:30:20;5.40;;;3.78;;
45802;SDS011;31504;51.716;9.184;2022-08-19T03:33:21;4.10;;;3.33;;
45802;SDS011;31504;51.716;9.184;2022-08-19T03:36:23;4.95;;;3.95;;
45802;SDS011;31504;51.716;9.184;2022-08-19T03:39:25;4.40;;;4.00;;
45802;SDS011;31504;51.716;9.184;2022-08-19T03:42:27;4.28;;;3.85;;
45802;SDS011;31504;51.716;9.184;2022-08-19T03:45:27;5.68;;;4.40;;
45802;SDS011;31504;51.716;9.184;2022-08-19T03:48:28;6.32;;;4.75;;
45802;SDS011;31504;51.716;9.184;2022-08-19T03:51:30;6.47;;;4.82;;
45802;SDS011;31504;51.716;9.184;2022-08-19T03:54:32;6.40;;;4.97;;
45802;SDS011;31504;51.716;9.184;2022-08-19T03:57:33;9.80;;;5.57;;
45802;SDS011;31504;51.716;9.184;2022-08-19T04:00:34;7.55;;;6.65;;
45802;SDS011;31504;51.716;9.184;2022-08-19T04:03:35;6.78;;;5.32;;
45802;SDS011;31504;51.716;9.184;2022-08-19T04:06:36;8.40;;;6.53;;
45802;SDS011;31504;51.716;9.184;2022-08-19T04:09:38;15.35;;;9.00;;
45802;SDS011;31504;51.716;9.184;2022-08-19T04:12:38;12.30;;;9.68;;
45802;SDS011;31504;51.716;9.184;2022-08-19T04:15:40;15.18;;;12.30;;
45802;SDS011;31504;51.716;9.184;2022-08-19T04:18:41;18.27;;;15.18;;
45802;SDS011;31504;51.716;9.184;2022-08-19T04:21:43;17.52;;;14.73;;
45802;SDS011;31504;51.716;9.184;2022-08-19T04:24:46;16.00;;;14.30;;
45802;SDS011;31504;51.716;9.184;2022-08-19T04:27:47;17.17;;;14.18;;
45802;SDS011;31504;51.716;9.184;2022-08-19T04:30:49;18.35;;;15.27;;
45802;SDS011;31504;51.716;9.184;2022-08-19T04:33:53;20.55;;;15.63;;
45802;SDS011;31504;51.716;9.184;2022-08-19T04:36:58;18.00;;;15.27;;
45802;SDS011;31504;51.716;9.184;2022-08-19T04:39:59;18.02;;;15.55;;
45802;SDS011;31504;51.716;9.184;2022-08-19T04:43:18;16.98;;;14.32;;
45802;SDS011;31504;51.716;9.184;2022-08-19T04:46:19;17.90;;;14.75;;
45802;SDS011;31504;51.716;9.184;2022-08-19T04:49:20;16.52;;;13.77;;
45802;SDS011;31504;51.716;9.184;2022-08-19T04:52:22;15.75;;;14.05;;
45802;SDS011;31504;51.716;9.184;2022-08-19T04:55:22;14.82;;;13.23;;
45802;SDS011;31504;51.716;9.184;2022-08-19T04:58:25;15.07;;;12.85;;
45802;SDS011;31504;51.716;9.184;2022-08-19T05:01:27;16.98;;;12.85;;
45802;SDS011;31504;51.716;9.184;2022-08-19T05:04:29;14.70;;;12.13;;
45802;SDS011;31504;51.716;9.184;2022-08-19T05:07:31;13.73;;;12.05;;
45802;SDS011;31504;51.716;9.184;2022-08-19T05:10:34;12.73;;;10.95;;
45802;SDS011;31504;51.716;9.184;2022-08-19T05:13:36;11.40;;;10.25;;
45802;SDS011;31504;51.716;9.184;2022-08-19T05:16:37;11.30;;;9.75;;
45802;SDS011;31504;51.716;9.184;2022-08-19T05:19:37;10.45;;;9.45;;
45802;SDS011;31504;51.716;9.184;2022-08-19T05:22:56;9.57;;;8.57;;
45802;SDS011;31504;51.716;9.184;2022-08-19T05:25:57;10.18;;;8.23;;
45802;SDS011;31504;51.716;9.184;2022-08-19T05:28:57;9.63;;;7.88;;
45802;SDS011;31504;51.716;9.184;2022-08-19T05:31:58;10.15;;;8.20;;
45802;SDS011;31504;51.716;9.184;2022-08-19T05:34:59;8.80;;;7.80;;
45802;SDS011;31504;51.716;9.184;2022-08-19T05:37:59;8.35;;;7.38;;
45802;SDS011;31504;51.716;9.184;2022-08-19T05:41:00;7.60;;;6.55;;
45802;SDS011;31504;51.716;9.184;2022-08-19T05:44:06;7.85;;;7.00;;
45802;SDS011;31504;51.716;9.184;2022-08-19T05:47:09;7.28;;;6.40;;
45802;SDS011;31504;51.716;9.184;2022-08-19T05:50:11;6.95;;;6.03;;
45802;SDS011;31504;51.716;9.184;2022-08-19T05:53:12;6.35;;;5.75;;
45802;SDS011;31504;51.716;9.184;2022-08-19T05:56:15;6.40;;;5.70;;
45802;SDS011;31504;51.716;9.184;2022-08-19T05:59:17;6.50;;;5.57;;
45802;SDS011;31504;51.716;9.184;2022-08-19T06:02:21;6.22;;;5.22;;
45802;SDS011;31504;51.716;9.184;2022-08-19T06:05:21;6.75;;;4.80;;
45802;SDS011;31504;51.716;9.184;2022-08-19T06:08:22;7.70;;;5.20;;
45802;SDS011;31504;51.716;9.184;2022-08-19T06:11:24;7.75;;;5.20;;
45802;SDS011;31504;51.716;9.184;2022-08-19T06:14:34;6.47;;;4.88;;
45802;SDS011;31504;51.716;9.184;2022-08-19T06:17:35;4.85;;;4.35;;
45802;SDS011;31504;51.716;9.184;2022-08-19T06:20:36;5.25;;;4.10;;
45802;SDS011;31504;51.716;9.184;2022-08-19T06:23:37;4.63;;;4.18;;
45802;SDS011;31504;51.716;9.184;2022-08-19T06:26:39;6.05;;;4.28;;
45802;SDS011;31504;51.716;9.184;2022-08-19T06:29:41;4.63;;;3.92;;
45802;SDS011;31504;51.716;9.184;2022-08-19T06:32:42;4.80;;;3.80;;
45802;SDS011;31504;51.716;9.184;2022-08-19T06:35:42;4.75;;;4.20;;
45802;SDS011;31504;51.716;9.184;2022-08-19T06:38:43;4.97;;;3.92;;
45802;SDS011;31504;51.716;9.184;2022-08-19T06:41:45;4.38;;;3.42;;
45802;SDS011;31504;51.716;9.184;2022-08-19T06:44:47;3.92;;;3.60;;
45802;SDS011;31504;51.716;9.184;2022-08-19T06:47:49;4.65;;;3.25;;
45802;SDS011;31504;51.716;9.184;2022-08-19T06:50:49;4.88;;;3.45;;
45802;SDS011;31504;51.716;9.184;2022-08-19T06:53:52;4.20;;;3.10;;
45802;SDS011;31504;51.716;9.184;2022-08-19T06:56:54;4.45;;;3.67;;
45802;SDS011;31504;51.716;9.184;2022-08-19T06:59:54;5.22;;;3.28;;
45802;SDS011;31504;51.716;9.184;2022-08-19T07:02:56;3.05;;;2.78;;
45802;SDS011;31504;51.716;9.184;2022-08-19T07:05:56;4.70;;;3.30;;
45802;SDS011;31504;51.716;9.184;2022-08-19T07:09:05;5.10;;;3.85;;
45802;SDS011;31504;51.716;9.184;2022-08-19T07:12:07;3.10;;;2.80;;
45802;SDS011;31504;51.716;9.184;2022-08-19T07:15:10;3.30;;;3.00;;
45802;SDS011;31504;51.716;9.184;2022-08-19T07:18:12;3.85;;;3.03;;
45802;SDS011;31504;51.716;9.184;2022-08-19T07:21:13;3.55;;;3.22;;
45802;SDS011;31504;51.716;9.184;2022-08-19T07:24:16;4.07;;;3.63;;
45802;SDS011;31504;51.716;9.184;2022-08-19T07:27:17;6.15;;;3.72;;
45802;SDS011;31504;51.716;9.184;2022-08-19T07:30:19;6.93;;;4.10;;
45802;SDS011;31504;51.716;9.184;2022-08-19T07:33:19;5.55;;;4.95;;
45802;SDS011;31504;51.716;9.184;2022-08-19T07:36:22;8.63;;;7.07;;
45802;SDS011;31504;51.716;9.184;2022-08-19T07:39:29;12.63;;;9.13;;
45802;SDS011;31504;51.716;9.184;2022-08-19T07:42:31;9.70;;;8.77;;
45802;SDS011;31504;51.716;9.184;2022-08-19T07:45:32;8.02;;;7.32;;
45802;SDS011;31504;51.716;9.184;2022-08-19T07:48:32;8.18;;;7.25;;
45802;SDS011;31504;51.716;9.184;2022-08-19T07:51:33;7.88;;;7.07;;
45802;SDS011;31504;51.716;9.184;2022-08-19T07:54:36;8.90;;;7.70;;
45802;SDS011;31504;51.716;9.184;2022-08-19T07:57:37;9.38;;;7.47;;
45802;SDS011;31504;51.716;9.184;2022-08-19T08:00:38;8.23;;;7.28;;
45802;SDS011;31504;51.716;9.184;2022-08-19T08:03:39;8.93;;;6.75;;
45802;SDS011;31504;51.716;9.184;2022-08-19T08:06:58;7.15;;;6.32;;
45802;SDS011;31504;51.716;9.184;2022-08-19T08:10:19;7.00;;;5.70;;
45802;SDS011;31504;51.716;9.184;2022-08-19T08:13:20;4.80;;;4.30;;
45802;SDS011;31504;51.716;9.184;2022-08-19T08:16:20;6.72;;;5.30;;
45802;SDS011;31504;51.716;9.184;2022-08-19T08:19:22;4.55;;;4.15;;
45802;SDS011;31504;51.716;9.184;2022-08-19T08:22:24;4.68;;;4.18;;
45802;SDS011;31504;51.716;9.184;2022-08-19T08:25:43;6.13;;;4.03;;
45802;SDS011;31504;51.716;9.184;2022-08-19T08:28:44;5.68;;;4.13;;
45802;SDS011;31504;51.716;9.184;2022-08-19T08:31:48;5.00;;;3.78;;
45802;SDS011;31504;51.716;9.184;2022-08-19T08:34:48;5.38;;;3.65;;
45802;SDS011;31504;51.716;9.184;2022-08-19T08:37:50;4.07;;;3.67;;
45802;SDS011;31504;51.716;9.184;2022-08-19T08:40:53;5.18;;;3.08;;
45802;SDS011;31504;51.716;9.184;2022-08-19T08:44:06;4.63;;;3.38;;
45802;SDS011;31504;51.716;9.184;2022-08-19T08:50:18;4.07;;;3.47;;
45802;SDS011;31504;51.716;9.184;2022-08-19T08:53:22;3.58;;;3.22;;
45802;SDS011;31504;51.716;9.184;2022-08-19T08:56:25;4.25;;;2.88;;
45802;SDS011;31504;51.716;9.184;2022-08-19T08:59:33;7.70;;;3.50;;
45802;SDS011;31504;51.716;9.184;2022-08-19T09:02:36;4.22;;;3.47;;
45802;SDS011;31504;51.716;9.184;2022-08-19T09:05:41;5.45;;;4.20;;
45802;SDS011;31504;51.716;9.184;2022-08-19T09:08:52;5.00;;;3.23;;
45802;SDS011;31504;51.716;9.184;2022-08-19T09:12:10;6.25;;;3.92;;
45802;SDS011;31504;51.716;9.184;2022-08-19T09:15:36;3.65;;;2.88;;
45802;SDS011;31504;51.716;9.184;2022-08-19T09:18:46;2.90;;;2.70;;
45802;SDS011;31504;51.716;9.184;2022-08-19T09:21:54;4.28;;;3.25;;
45802;SDS011;31504;51.716;9.184;2022-08-19T09:24:54;2.92;;;2.67;;
45802;SDS011;31504;51.716;9.184;2022-08-19T09:27:55;3.40;;;2.92;;
45802;SDS011;31504;51.716;9.184;2022-08-19T09:30:57;4.75;;;3.03;;
45802;SDS011;31504;51.716;9.184;2022-08-19T09:33:57;3.92;;;3.58;;
45802;SDS011;31504;51.716;9.184;2022-08-19T09:36:59;6.57;;;3.85;;
45802;SDS011;31504;51.716;9.184;2022-08-19T09:40:00;4.22;;;3.83;;
45802;SDS011;31504;51.716;9.184;2022-08-19T09:43:00;4.68;;;3.50;;
45802;SDS011;31504;51.716;9.184;2022-08-19T09:46:03;4.18;;;3.20;;
45802;SDS011;31504;51.716;9.184;2022-08-19T09:49:06;5.80;;;3.67;;
45802;SDS011;31504;51.716;9.184;2022-08-19T09:52:10;4.70;;;3.53;;
45802;SDS011;31504;51.716;9.184;2022-08-19T09:55:12;3.60;;;3.08;;
45802;SDS011;31504;51.716;9.184;2022-08-19T09:58:12;4.63;;;3.08;;
45802;SDS011;31504;51.716;9.184;2022-08-19T10:01:18;3.67;;;3.17;;
45802;SDS011;31504;51.716;9.184;2022-08-19T10:04:21;6.85;;;3.15;;
45802;SDS011;31504;51.716;9.184;2022-08-19T10:07:22;5.82;;;3.17;;
45802;SDS011;31504;51.716;9.184;2022-08-19T10:10:22;4.43;;;3.47;;
45802;SDS011;31504;51.716;9.184;2022-08-19T10:13:24;3.88;;;3.05;;
45802;SDS011;31504;51.716;9.184;2022-08-19T10:16:27;3.08;;;2.63;;
45802;SDS011;31504;51.716;9.184;2022-08-19T10:19:28;3.25;;;2.95;;
45802;SDS011;31504;51.716;9.184;2022-08-19T10:22:35;3.47;;;3.13;;
45802;SDS011;31504;51.716;9.184;2022-08-19T10:25:37;3.83;;;3.42;;
45802;SDS011;31504;51.716;9.184;2022-08-19T10:28:38;5.10;;;4.05;;
45802;SDS011;31504;51.716;9.184;2022-08-19T10:31:38;4.90;;;3.80;;
45802;SDS011;31504;51.716;9.184;2022-08-19T10:34:39;5.38;;;3.85;;
45802;SDS011;31504;51.716;9.184;2022-08-19T10:37:40;4.05;;;3.20;;
45802;SDS011;31504;51.716;9.184;2022-08-19T10:40:40;7.68;;;3.40;;
45802;SDS011;31504;51.716;9.184;2022-08-19T10:43:41;6.03;;;4.63;;
45802;SDS011;31504;51.716;9.184;2022-08-19T10:46:43;4.82;;;4.43;;
45802;SDS011;31504;51.716;9.184;2022-08-19T10:49:48;5.50;;;4.00;;
45802;SDS011;31504;51.716;9.184;2022-08-19T10:53:07;5.55;;;4.28;;
45802;SDS011;31504;51.716;9.184;2022-08-19T10:56:08;5.47;;;4.18;;
45802;SDS011;31504;51.716;9.184;2022-08-19T10:59:28;5.07;;;3.55;;
45802;SDS011;31504;51.716;9.184;2022-08-19T11:02:29;5.10;;;3.28;;
45802;SDS011;31504;51.716;9.184;2022-08-19T11:05:32;3.90;;;3.33;;
45802;SDS011;31504;51.716;9.184;2022-08-19T11:08:34;3.72;;;3.30;;
45802;SDS011;31504;51.716;9.184;2022-08-19T11:11:37;6.65;;;4.63;;
45802;SDS011;31504;51.716;9.184;2022-08-19T11:14:41;4.60;;;4.18;;
45802;SDS011;31504;51.716;9.184;2022-08-19T11:17:42;5.10;;;4.50;;
45802;SDS011;31504;51.716;9.184;2022-08-19T11:20:43;4.45;;;4.05;;
45802;SDS011;31504;51.716;9.184;2022-08-19T11:23:43;4.13;;;3.42;;
45802;SDS011;31504;51.716;9.184;2022-08-19T11:26:45;5.32;;;3.50;;
45802;SDS011;31504;51.716;9.184;2022-08-19T11:29:49;3.53;;;3.20;;
45802;SDS011;31504;51.716;9.184;2022-08-19T11:32:49;4.70;;;3.38;;
45802;SDS011;31504;51.716;9.184;2022-08-19T11:35:50;5.25;;;2.90;;
45802;SDS011;31504;51.716;9.184;2022-08-19T11:38:50;4.53;;;3.00;;
45802;SDS011;31504;51.716;9.184;2022-08-19T11:41:51;4.10;;;2.53;;
45802;SDS011;31504;51.716;9.184;2022-08-19T11:44:52;3.10;;;2.75;;
45802;SDS011;31504;51.716;9.184;2022-08-19T11:47:53;3.10;;;2.80;;
45802;SDS011;31504;51.716;9.184;2022-08-19T11:50:54;3.22;;;2.63;;
45802;SDS011;31504;51.716;9.184;2022-08-19T11:53:58;3.33;;;2.55;;
45802;SDS011;31504;51.716;9.184;2022-08-19T11:56:59;4.45;;;2.78;;
45802;SDS011;31504;51.716;9.184;2022-08-19T12:00:02;2.58;;;2.38;;
45802;SDS011;31504;51.716;9.184;2022-08-19T12:03:05;3.17;;;2.80;;
45802;SDS011;31504;51.716;9.184;2022-08-19T12:06:08;3.15;;;2.33;;
45802;SDS011;31504;51.716;9.184;2022-08-19T12:09:12;2.65;;;2.45;;
45802;SDS011;31504;51.716;9.184;2022-08-19T12:12:14;2.67;;;2.45;;
45802;SDS011;31504;51.716;9.184;2022-08-19T12:15:15;4.05;;;3.10;;
45802;SDS011;31504;51.716;9.184;2022-08-19T12:18:15;2.83;;;2.63;;
45802;SDS011;31504;51.716;9.184;2022-08-19T12:21:17;2.53;;;2.33;;
45802;SDS011;31504;51.716;9.184;2022-08-19T12:24:23;3.10;;;2.28;;
45802;SDS011;31504;51.716;9.184;2022-08-19T12:27:24;4.10;;;2.70;;
45802;SDS011;31504;51.716;9.184;2022-08-19T12:30:24;3.40;;;3.10;;
45802;SDS011;31504;51.716;9.184;2022-08-19T12:33:25;3.17;;;2.58;;
45802;SDS011;31504;51.716;9.184;2022-08-19T12:36:27;3.63;;;2.63;;
45802;SDS011;31504;51.716;9.184;2022-08-19T12:39:28;2.55;;;2.45;;
45802;SDS011;31504;51.716;9.184;2022-08-19T12:42:30;2.92;;;2.72;;
45802;SDS011;31504;51.716;9.184;2022-08-19T12:45:30;3.28;;;3.00;;
45802;SDS011;31504;51.716;9.184;2022-08-19T12:48:32;3.63;;;2.72;;
45802;SDS011;31504;51.716;9.184;2022-08-19T12:51:33;4.88;;;2.70;;
45802;SDS011;31504;51.716;9.184;2022-08-19T12:54:33;3.15;;;2.88;;
45802;SDS011;31504;51.716;9.184;2022-08-19T12:57:35;7.32;;;2.75;;
45802;SDS011;31504;51.716;9.184;2022-08-19T13:00:36;2.67;;;2.47;;
45802;SDS011;31504;51.716;9.184;2022-08-19T13:03:36;2.88;;;2.65;;
45802;SDS011;31504;51.716;9.184;2022-08-19T13:06:37;3.50;;;2.70;;
45802;SDS011;31504;51.716;9.184;2022-08-19T13:09:38;3.30;;;3.00;;
45802;SDS011;31504;51.716;9.184;2022-08-19T13:12:42;3.88;;;3.05;;
45802;SDS011;31504;51.716;9.184;2022-08-19T13:15:44;2.85;;;2.60;;
45802;SDS011;31504;51.716;9.184;2022-08-19T13:18:45;4.68;;;2.63;;
45802;SDS011;31504;51.716;9.184;2022-08-19T13:21:52;3.00;;;2.80;;
45802;SDS011;31504;51.716;9.184;2022-08-19T13:24:56;3.25;;;2.90;;
45802;SDS011;31504;51.716;9.184;2022-08-19T13:27:56;3.08;;;2.75;;
45802;SDS011;31504;51.716;9.184;2022-08-19T13:30:57;3.17;;;2.88;;
45802;SDS011;31504;51.716;9.184;2022-08-19T13:34:17;3.20;;;2.85;;
45802;SDS011;31504;51.716;9.184;2022-08-19T13:37:26;3.28;;;2.97;;
45802;SDS011;31504;51.716;9.184;2022-08-19T13:40:42;3.25;;;2.92;;
45802;SDS011;31504;51.716;9.184;2022-08-19T13:43:43;3.85;;;3.55;;
45802;SDS011;31504;51.716;9.184;2022-08-19T13:46:44;2.88;;;2.67;;
45802;SDS011;31504;51.716;9.184;2022-08-19T13:49:46;3.25;;;2.95;;
45802;SDS011;31504;51.716;9.184;2022-08-19T13:52:47;3.05;;;2.80;;
45802;SDS011;31504;51.716;9.184;2022-08-19T13:55:48;3.75;;;3.40;;
45802;SDS011;31504;51.716;9.184;2022-08-19T13:58:50;4.38;;;3.97;;
45802;SDS011;31504;51.716;9.184;2022-08-19T14:01:51;7.93;;;5.75;;
45802;SDS011;31504;51.716;9.184;2022-08-19T14:04:52;8.05;;;6.45;;
45802;SDS011;31504;51.716;9.184;2022-08-19T14:07:52;8.23;;;7.53;;
45802;SDS011;31504;51.716;9.184;2022-08-19T14:10:54;7.82;;;6.95;;
45802;SDS011;31504;51.716;9.184;2022-08-19T14:13:55;9.65;;;6.95;;
45802;SDS011;31504;51.716;9.184;2022-08-19T14:16:55;9.90;;;8.07;;
45802;SDS011;31504;51.716;9.184;2022-08-19T14:19:56;9.40;;;7.75;;
45802;SDS011;31504;51.716;9.184;2022-08-19T14:22:59;11.10;;;9.98;;
45802;SDS011;31504;51.716;9.184;2022-08-19T14:26:07;10.15;;;8.55;;
45802;SDS011;31504;51.716;9.184;2022-08-19T14:29:09;12.95;;;11.45;;
45802;SDS011;31504;51.716;9.184;2022-08-19T14:32:10;16.95;;;12.00;;
45802;SDS011;31504;51.716;9.184;2022-08-19T14:35:11;12.80;;;11.40;;
45802;SDS011;31504;51.716;9.184;2022-08-19T14:38:17;11.55;;;10.20;;
45802;SDS011;31504;51.716;9.184;2022-08-19T14:41:19;13.25;;;10.95;;
45802;SDS011;31504;51.716;9.184;2022-08-19T14:44:21;11.00;;;9.90;;
45802;SDS011;31504;51.716;9.184;2022-08-19T14:47:22;10.52;;;9.52;;
45802;SDS011;31504;51.716;9.184;2022-08-19T14:50:23;11.02;;;8.65;;
45802;SDS011;31504;51.716;9.184;2022-08-19T14:53:23;8.38;;;7.68;;
45802;SDS011;31504;51.716;9.184;2022-08-19T14:56:25;9.32;;;8.43;;
45802;SDS011;31504;51.716;9.184;2022-08-19T14:59:27;10.07;;;9.07;;
45802;SDS011;31504;51.716;9.184;2022-08-19T15:02:27;9.18;;;8.23;;
45802;SDS011;31504;51.716;9.184;2022-08-19T15:05:28;8.45;;;7.72;;
45802;SDS011;31504;51.716;9.184;2022-08-19T15:08:29;9.18;;;7.55;;
45802;SDS011;31504;51.716;9.184;2022-08-19T15:11:31;7.40;;;6.70;;
45802;SDS011;31504;51.716;9.184;2022-08-19T15:14:35;8.75;;;7.85;;
45802;SDS011;31504;51.716;9.184;2022-08-19T15:17:37;7.55;;;6.85;;
45802;SDS011;31504;51.716;9.184;2022-08-19T15:20:40;7.13;;;6.45;;
45802;SDS011;31504;51.716;9.184;2022-08-19T15:23:40;7.95;;;7.25;;
45802;SDS011;31504;51.716;9.184;2022-08-19T15:26:41;9.70;;;8.73;;
45802;SDS011;31504;51.716;9.184;2022-08-19T15:29:42;11.77;;;10.60;;
45802;SDS011;31504;51.716;9.184;2022-08-19T15:32:45;12.60;;;10.50;;
45802;SDS011;31504;51.716;9.184;2022-08-19T15:35:46;11.50;;;10.30;;
45802;SDS011;31504;51.716;9.184;2022-08-19T15:38:49;11.57;;;10.38;;
45802;SDS011;31504;51.716;9.184;2022-08-19T15:41:52;12.40;;;11.10;;
45802;SDS011;31504;51.716;9.184;2022-08-19T15:44:52;12.95;;;11.02;;
45802;SDS011;31504;51.716;9.184;2022-08-19T15:47:53;12.15;;;10.93;;
45802;SDS011;31504;51.716;9.184;2022-08-19T15:50:53;10.88;;;9.75;;
45802;SDS011;31504;51.716;9.184;2022-08-19T15:53:54;12.57;;;8.38;;
45802;SDS011;31504;51.716;9.184;2022-08-19T15:56:55;8.32;;;7.50;;
45802;SDS011;31504;51.716;9.184;2022-08-19T16:00:14;7.35;;;6.57;;
45802;SDS011;31504;51.716;9.184;2022-08-19T16:03:33;8.07;;;7.35;;
45802;SDS011;31504;51.716;9.184;2022-08-19T16:06:56;6.97;;;6.28;;
45802;SDS011;31504;51.716;9.184;2022-08-19T16:09:58;10.73;;;9.63;;
45802;SDS011;31504;51.716;9.184;2022-08-19T16:12:58;11.65;;;10.45;;
45802;SDS011;31504;51.716;9.184;2022-08-19T16:15:59;12.02;;;10.68;;
45802;SDS011;31504;51.716;9.184;2022-08-19T16:19:00;11.32;;;9.93;;
45802;SDS011;31504;51.716;9.184;2022-08-19T16:22:05;10.95;;;9.85;;
45802;SDS011;31504;51.716;9.184;2022-08-19T16:25:06;9.27;;;8.45;;
45802;SDS011;31504;51.716;9.184;2022-08-19T16:28:07;10.27;;;9.18;;
45802;SDS011;31504;51.716;9.184;2022-08-19T16:31:09;10.38;;;9.38;;
45802;SDS011;31504;51.716;9.184;2022-08-19T16:34:11;11.25;;;10.00;;
45802;SDS011;31504;51.716;9.184;2022-08-19T16:37:12;15.10;;;13.50;;
45802;SDS011;31504;51.716;9.184;2022-08-19T16:40:13;12.73;;;11.43;;
45802;SDS011;31504;51.716;9.184;2022-08-19T16:43:14;12.30;;;11.10;;
45802;SDS011;31504;51.716;9.184;2022-08-19T16:46:15;13.25;;;11.85;;
45802;SDS011;31504;51.716;9.184;2022-08-19T16:49:15;13.70;;;11.57;;
45802;SDS011;31504;51.716;9.184;2022-08-19T16:52:16;12.00;;;10.85;;
45802;SDS011;31504;51.716;9.184;2022-08-19T16:55:18;11.93;;;10.55;;
45802;SDS011;31504;51.716;9.184;2022-08-19T16:58:21;13.35;;;11.65;;
45802;SDS011;31504;51.716;9.184;2022-08-19T17:01:24;11.80;;;10.70;;
45802;SDS011;31504;51.716;9.184;2022-08-19T17:04:26;11.55;;;10.40;;
45802;SDS011;31504;51.716;9.184;2022-08-19T17:07:28;10.93;;;9.85;;
45802;SDS011;31504;51.716;9.184;2022-08-19T17:10:29;9.43;;;8.55;;
45802;SDS011;31504;51.716;9.184;2022-08-19T17:13:30;9.43;;;8.45;;
45802;SDS011;31504;51.716;9.184;2022-08-19T17:16:31;8.75;;;7.95;;
45802;SDS011;31504;51.716;9.184;2022-08-19T17:19:33;9.10;;;8.30;;
45802;SDS011;31504;51.716;9.184;2022-08-19T17:22:34;9.18;;;8.27;;
45802;SDS011;31504;51.716;9.184;2022-08-19T17:25:36;10.40;;;9.40;;
45802;SDS011;31504;51.716;9.184;2022-08-19T17:28:37;12.35;;;10.88;;
45802;SDS011;31504;51.716;9.184;2022-08-19T17:31:37;15.32;;;13.20;;
45802;SDS011;31504;51.716;9.184;2022-08-19T17:34:38;15.05;;;13.50;;
45802;SDS011;31504;51.716;9.184;2022-08-19T17:37:38;16.92;;;14.63;;
45802;SDS011;31504;51.716;9.184;2022-08-19T17:40:39;20.65;;;18.40;;
45802;SDS011;31504;51.716;9.184;2022-08-19T17:43:41;20.42;;;18.25;;
45802;SDS011;31504;51.716;9.184;2022-08-19T17:46:42;20.92;;;18.73;;
45802;SDS011;31504;51.716;9.184;2022-08-19T17:49:44;20.30;;;18.08;;
45802;SDS011;31504;51.716;9.184;2022-08-19T17:52:44;21.38;;;19.15;;
45802;SDS011;31504;51.716;9.184;2022-08-19T17:55:44;27.20;;;21.95;;
45802;SDS011;31504;51.716;9.184;2022-08-19T17:58:45;24.70;;;22.08;;
45802;SDS011;31504;51.716;9.184;2022-08-19T18:01:48;24.80;;;22.08;;
45802;SDS011;31504;51.716;9.184;2022-08-19T18:04:48;25.67;;;20.88;;
45802;SDS011;31504;51.716;9.184;2022-08-19T18:07:49;21.48;;;19.27;;
45802;SDS011;31504;51.716;9.184;2022-08-19T18:10:51;20.85;;;18.73;;
45802;SDS011;31504;51.716;9.184;2022-08-19T18:13:51;22.33;;;20.10;;
45802;SDS011;31504;51.716;9.184;2022-08-19T18:16:52;21.02;;;18.77;;